Time;durP1;ratioP1;P1;durP2;ratioP2;P2;SDS_P1;SDS_P2;PMS_P1;PMS_P2;Temp;Humidity;BMP_temperature;BMP_pressure;BME280_temperature;BME280_humidity;BME280_pressure;Samples;Min_cycle;Max_cycle;Signal;HPM_P1;HPM_P2
2022/03/12 00:01:36;;;;;;;;;;;9.30;84.50;;;;;;5131956;27;19930;-75
2022/03/12 00:04:06;;;;;;;;;;;9.20;84.50;;;;;;5132031;27;20259;-76
2022/03/12 00:06:33;;;;;;;;;;;9.20;84.50;;;;;;5131181;27;19930;-78
2022/03/12 00:09:00;;;;;;;;;;;9.20;84.70;;;;;;5131550;27;19927;-76
2022/03/12 00:11:34;;;;;;;;;;;9.20;84.70;;;;;;5131656;27;19927;-76
2022/03/12 00:14:02;;;;;;;;;;;9.20;84.50;;;;;;5131969;27;19924;-76
2022/03/12 00:16:29;;;;;;;;;;;9.20;84.40;;;;;;5132075;27;20003;-76
2022/03/12 00:18:58;;;;;;;;;;;9.20;84.60;;;;;;5131452;27;19924;-76
2022/03/12 00:21:28;;;;;;;;;;;9.20;84.70;;;;;;5131428;27;19968;-77
2022/03/12 00:23:56;;;;;;;;;;;9.20;84.60;;;;;;5131491;27;19923;-77
2022/03/12 00:26:23;;;;;;;;;;;9.10;84.70;;;;;;5131491;27;20417;-77
2022/03/12 00:28:52;;;;;;;;;;;9.10;84.60;;;;;;5131156;27;19923;-77
2022/03/12 00:31:19;;;;;;;;;;;9.10;84.70;;;;;;5131575;27;20306;-75
2022/03/12 00:33:46;;;;;;;;;;;9.10;85.00;;;;;;5131315;27;19972;-77
2022/03/12 00:36:14;;;;;;;;;;;9.10;84.80;;;;;;5131463;27;19927;-77
2022/03/12 00:38:40;;;;;;;;;;;9.10;84.70;;;;;;5131056;27;19933;-77
2022/03/12 00:41:07;;;;;;;;;;;9.10;84.60;;;;;;5130998;27;19923;-77
2022/03/12 00:43:35;;;;;;;;;;;9.10;84.70;;;;;;5131115;27;19977;-78
2022/03/12 00:46:05;;;;;;;;;;;9.10;84.60;;;;;;5131266;27;20382;-77
2022/03/12 00:48:32;;;;;;;;;;;9.10;84.70;;;;;;5131108;27;19927;-78
2022/03/12 00:50:59;;;;;;;;;;;9.10;84.70;;;;;;5130363;27;19931;-78
2022/03/12 00:53:26;;;;;;;;;;;9.20;84.70;;;;;;5131485;27;19927;-77
2022/03/12 00:55:52;;;;;;;;;;;9.10;84.60;;;;;;5131217;27;19923;-77
2022/03/12 00:58:21;;;;;;;;;;;9.10;84.60;;;;;;5131116;27;20342;-77
2022/03/12 01:00:48;;;;;;;;;;;9.10;84.60;;;;;;5139358;22;19931;-76
2022/03/12 01:03:16;;;;;;;;;;;9.10;84.30;;;;;;5049975;28;19978;-77
2022/03/12 01:05:52;;;;;;;;;;;9.20;84.40;;;;;;5050073;28;19933;-77
2022/03/12 01:08:19;;;;;;;;;;;9.20;84.20;;;;;;5050214;28;19925;-76
2022/03/12 01:10:46;;;;;;;;;;;9.20;84.40;;;;;;5054851;28;19972;-76
2022/03/12 01:13:13;;;;;;;;;;;9.20;84.30;;;;;;5069898;28;19932;-76
2022/03/12 01:15:41;;;;;;;;;;;9.30;84.20;;;;;;5070262;28;19970;-76
2022/03/12 01:18:10;;;;;;;;;;;9.30;83.90;;;;;;5069845;28;20440;-76
2022/03/12 01:20:38;;;;;;;;;;;9.30;84.00;;;;;;5069463;28;19925;-77
2022/03/12 01:23:06;;;;;;;;;;;9.30;84.00;;;;;;5069913;28;20350;-77
2022/03/12 01:25:32;;;;;;;;;;;9.30;84.10;;;;;;5070012;28;20130;-76
2022/03/12 01:27:59;;;;;;;;;;;9.30;84.00;;;;;;5069691;28;19925;-76
2022/03/12 01:30:27;;;;;;;;;;;9.30;83.90;;;;;;5069430;28;19978;-76
2022/03/12 01:32:54;;;;;;;;;;;9.30;84.30;;;;;;5069863;28;19983;-76
2022/03/12 01:35:21;;;;;;;;;;;9.30;84.20;;;;;;5069782;28;19932;-78
2022/03/12 01:37:49;;;;;;;;;;;9.30;84.10;;;;;;5069985;28;19931;-78
2022/03/12 01:40:17;;;;;;;;;;;9.30;84.10;;;;;;5069252;28;19924;-77
2022/03/12 01:42:43;;;;;;;;;;;9.30;84.10;;;;;;5070006;28;19932;-78
2022/03/12 01:45:11;;;;;;;;;;;9.30;84.20;;;;;;5069968;28;20035;-77
2022/03/12 01:47:38;;;;;;;;;;;9.30;84.10;;;;;;5069886;28;19925;-78
2022/03/12 01:50:05;;;;;;;;;;;9.30;84.30;;;;;;5069404;28;20288;-78
2022/03/12 01:52:32;;;;;;;;;;;9.40;84.50;;;;;;5069882;28;19924;-78
2022/03/12 01:55:00;;;;;;;;;;;9.30;84.40;;;;;;5069686;28;19924;-78
2022/03/12 01:57:27;;;;;;;;;;;9.30;84.80;;;;;;5069710;28;19978;-78
2022/03/12 01:59:54;;;;;;;;;;;9.30;84.50;;;;;;5069030;28;19959;-78
2022/03/12 02:02:21;;;;;;;;;;;9.30;84.80;;;;;;5069723;28;19928;-79
2022/03/12 02:04:51;;;;;;;;;;;9.20;84.80;;;;;;5069665;28;19964;-78
2022/03/12 02:07:19;;;;;;;;;;;9.20;84.90;;;;;;5069618;28;19931;-79
2022/03/12 02:09:46;;;;;;;;;;;9.20;85.10;;;;;;5070333;28;19959;-78
2022/03/12 02:12:14;;;;;;;;;;;9.20;85.40;;;;;;5072041;28;20415;-79
2022/03/12 02:14:41;;;;;;;;;;;9.20;85.30;;;;;;5072241;28;19978;-80
2022/03/12 02:17:09;;;;;;;;;;;9.20;85.80;;;;;;5071915;28;19924;-78
2022/03/12 02:19:36;;;;;;;;;;;9.20;85.90;;;;;;5071175;28;19924;-78
2022/03/12 02:22:31;;;;;;;;;;;9.10;86.10;;;;;;5070923;28;20358;-78
2022/03/12 02:24:59;;;;;;;;;;;9.10;86.20;;;;;;5068667;28;19928;-79
2022/03/12 02:27:26;;;;;;;;;;;9.10;86.60;;;;;;5069219;28;20038;-78
2022/03/12 02:29:53;;;;;;;;;;;9.10;87.00;;;;;;5070859;28;19931;-78
2022/03/12 02:32:20;;;;;;;;;;;9.00;87.10;;;;;;5072702;28;19931;-79
2022/03/12 02:34:47;;;;;;;;;;;9.00;88.40;;;;;;5073150;28;19925;-78
2022/03/12 02:37:28;;;;;;;;;;;9.00;88.20;;;;;;5072795;28;19924;-78
2022/03/12 02:39:55;;;;;;;;;;;8.90;88.60;;;;;;5072231;28;19932;-78
2022/03/12 02:42:23;;;;;;;;;;;8.90;89.00;;;;;;5072679;28;19928;-78
2022/03/12 02:44:50;;;;;;;;;;;8.90;89.30;;;;;;5072817;28;19963;-78
2022/03/12 02:47:20;;;;;;;;;;;8.80;89.60;;;;;;5072665;28;19925;-78
2022/03/12 02:49:48;;;;;;;;;;;8.90;89.90;;;;;;5072161;28;19928;-78
2022/03/12 02:52:16;;;;;;;;;;;8.80;90.00;;;;;;5072767;28;20023;-77
2022/03/12 02:54:44;;;;;;;;;;;8.80;90.20;;;;;;5072375;28;19933;-78
2022/03/12 02:57:11;;;;;;;;;;;8.80;90.30;;;;;;5067321;28;19924;-78
2022/03/12 02:59:43;;;;;;;;;;;8.80;90.50;;;;;;5069151;28;19925;-78
2022/03/12 03:02:10;;;;;;;;;;;8.80;90.60;;;;;;5072248;28;19924;-78
2022/03/12 03:04:37;;;;;;;;;;;8.80;90.60;;;;;;5072344;28;19928;-80
2022/03/12 03:07:05;;;;;;;;;;;8.80;90.70;;;;;;5072278;28;19967;-78
2022/03/12 03:09:32;;;;;;;;;;;8.80;91.00;;;;;;5062365;28;19925;-79
2022/03/12 03:12:02;;;;;;;;;;;8.80;91.40;;;;;;5057897;28;19924;-78
2022/03/12 03:14:29;;;;;;;;;;;8.80;91.70;;;;;;5052498;28;20381;-78
2022/03/12 03:16:59;;;;;;;;;;;8.80;91.90;;;;;;5052163;28;19929;-79
2022/03/12 03:19:26;;;;;;;;;;;8.80;92.20;;;;;;5051753;28;19964;-78
2022/03/12 03:21:54;;;;;;;;;;;8.80;92.50;;;;;;5051971;28;19932;-78
2022/03/12 03:24:21;;;;;;;;;;;8.80;92.90;;;;;;5052225;28;19924;-78
2022/03/12 03:26:52;;;;;;;;;;;8.80;93.10;;;;;;5051777;28;19937;-78
2022/03/12 03:29:21;;;;;;;;;;;8.80;93.00;;;;;;5051515;28;19932;-78
2022/03/12 03:31:48;;;;;;;;;;;8.80;93.10;;;;;;5051768;28;19929;-78
2022/03/12 03:34:16;;;;;;;;;;;8.80;93.10;;;;;;5051904;28;19925;-79
2022/03/12 03:36:43;;;;;;;;;;;8.70;93.30;;;;;;5051789;28;19932;-77
2022/03/12 03:39:10;;;;;;;;;;;8.70;93.70;;;;;;5051538;28;19925;-78
2022/03/12 03:41:37;;;;;;;;;;;8.70;94.00;;;;;;5051483;28;19924;-78
2022/03/12 03:44:06;;;;;;;;;;;8.70;94.40;;;;;;5051817;28;19932;-77
2022/03/12 03:46:33;;;;;;;;;;;8.70;94.60;;;;;;5051279;28;20016;-78
2022/03/12 03:49:00;;;;;;;;;;;8.60;94.80;;;;;;5050895;28;20344;-78
2022/03/12 03:51:28;;;;;;;;;;;8.60;95.20;;;;;;5051366;28;20027;-78
2022/03/12 03:53:55;;;;;;;;;;;8.70;95.70;;;;;;5051378;28;19943;-78
2022/03/12 03:56:22;;;;;;;;;;;8.70;96.10;;;;;;5051378;28;19931;-79
2022/03/12 03:58:49;;;;;;;;;;;8.70;96.50;;;;;;5050971;28;19925;-76
2022/03/12 04:01:16;;;;;;;;;;;8.70;97.20;;;;;;5051086;28;20284;-80
2022/03/12 04:03:47;;;;;;;;;;;8.70;97.90;;;;;;5051280;28;19988;-77
2022/03/12 04:06:15;;;;;;;;;;;8.70;98.80;;;;;;5051397;28;20399;-79
2022/03/12 04:08:44;;;;;;;;;;;8.70;99.70;;;;;;5051077;28;20020;-78
2022/03/12 04:11:14;;;;;;;;;;;8.60;99.90;;;;;;5051164;28;19924;-77
2022/03/12 04:13:41;;;;;;;;;;;8.60;99.90;;;;;;5051352;28;19925;-78
2022/03/12 04:16:08;;;;;;;;;;;8.60;99.90;;;;;;5050801;28;20346;-78
2022/03/12 04:18:35;;;;;;;;;;;8.60;99.90;;;;;;5050806;28;19929;-79
2022/03/12 04:21:03;;;;;;;;;;;8.60;99.90;;;;;;5050370;28;19929;-78
2022/03/12 04:23:29;;;;;;;;;;;8.50;99.90;;;;;;5050897;28;20020;-78
2022/03/12 04:25:58;;;;;;;;;;;8.50;99.90;;;;;;5050784;28;19955;-78
2022/03/12 04:28:28;;;;;;;;;;;8.50;99.90;;;;;;5050937;28;19933;-77
2022/03/12 04:30:55;;;;;;;;;;;8.40;99.90;;;;;;5050213;28;19928;-78
2022/03/12 04:33:22;;;;;;;;;;;8.40;99.90;;;;;;5050572;28;19924;-79
2022/03/12 04:35:50;;;;;;;;;;;8.40;99.90;;;;;;5050970;28;19925;-78
2022/03/12 04:38:17;;;;;;;;;;;8.40;99.90;;;;;;5050582;28;20303;-78
2022/03/12 04:40:45;;;;;;;;;;;8.30;99.90;;;;;;5050117;28;19968;-79
2022/03/12 04:43:14;;;;;;;;;;;8.30;99.90;;;;;;5050613;28;20308;-78
2022/03/12 04:45:42;;;;;;;;;;;8.30;99.90;;;;;;5050229;28;20351;-78
2022/03/12 04:48:09;;;;;;;;;;;8.30;99.90;;;;;;5050378;28;19928;-78
2022/03/12 04:50:36;;;;;;;;;;;8.20;99.90;;;;;;5049935;28;19924;-80
2022/03/12 04:53:04;;;;;;;;;;;8.20;99.90;;;;;;5050111;28;19928;-79
2022/03/12 04:55:31;;;;;;;;;;;8.20;99.90;;;;;;5050481;28;19924;-79
2022/03/12 04:57:58;;;;;;;;;;;8.20;99.90;;;;;;5050398;28;19931;-78
2022/03/12 05:00:28;;;;;;;;;;;8.20;99.90;;;;;;5049585;28;19928;-78
2022/03/12 05:02:56;;;;;;;;;;;8.20;99.90;;;;;;5050433;28;20027;-78
2022/03/12 05:05:22;;;;;;;;;;;8.20;99.90;;;;;;5050400;28;19925;-77
2022/03/12 05:07:51;;;;;;;;;;;8.20;99.90;;;;;;5050576;28;19929;-78
2022/03/12 05:10:18;;;;;;;;;;;8.10;99.90;;;;;;5049811;28;19960;-78
2022/03/12 05:12:48;;;;;;;;;;;8.10;99.90;;;;;;5050246;28;19932;-78
2022/03/12 05:15:17;;;;;;;;;;;8.10;99.90;;;;;;5050118;28;19924;-78
2022/03/12 05:17:47;;;;;;;;;;;8.00;99.90;;;;;;5050394;28;19925;-81
2022/03/12 05:20:19;;;;;;;;;;;7.90;99.90;;;;;;5049586;28;19925;-78
2022/03/12 05:22:46;;;;;;;;;;;7.80;99.90;;;;;;5050239;28;19925;-77
2022/03/12 05:25:13;;;;;;;;;;;7.80;99.90;;;;;;5050240;28;19924;-77
2022/03/12 05:27:40;;;;;;;;;;;7.70;99.90;;;;;;5050000;28;19932;-79
2022/03/12 05:30:07;;;;;;;;;;;7.70;99.90;;;;;;5049815;28;19924;-77
2022/03/12 05:32:34;;;;;;;;;;;7.60;99.90;;;;;;5050230;28;19929;-80
2022/03/12 05:35:03;;;;;;;;;;;7.60;99.90;;;;;;5050331;28;20388;-77
2022/03/12 05:37:30;;;;;;;;;;;7.60;99.90;;;;;;5050275;28;19958;-77
2022/03/12 05:39:57;;;;;;;;;;;7.60;99.90;;;;;;5049674;28;20023;-79
2022/03/12 05:42:23;;;;;;;;;;;7.50;99.90;;;;;;5050064;28;19951;-77
2022/03/12 05:44:54;;;;;;;;;;;7.50;99.90;;;;;;5050283;28;20346;-77
2022/03/12 05:47:23;;;;;;;;;;;7.50;99.90;;;;;;5050454;28;19925;-77
2022/03/12 05:49:50;;;;;;;;;;;7.50;99.90;;;;;;5049953;28;20043;-78
2022/03/12 05:52:18;;;;;;;;;;;7.40;99.90;;;;;;5050110;28;19924;-78
2022/03/12 05:54:48;;;;;;;;;;;7.50;99.90;;;;;;5050326;28;19933;-78
2022/03/12 05:57:14;;;;;;;;;;;7.50;99.90;;;;;;5050750;28;19924;-77
2022/03/12 05:59:41;;;;;;;;;;;7.50;99.90;;;;;;5049763;28;20339;-78
2022/03/12 06:02:08;;;;;;;;;;;7.50;99.90;;;;;;5053177;28;19971;-78
2022/03/12 06:04:36;;;;;;;;;;;7.60;99.90;;;;;;5063751;28;19925;-78
2022/03/12 06:07:03;;;;;;;;;;;7.70;99.90;;;;;;5064903;28;19929;-78
2022/03/12 06:09:31;;;;;;;;;;;7.70;99.90;;;;;;5052959;28;19925;-80
2022/03/12 06:11:59;;;;;;;;;;;7.70;99.90;;;;;;5053474;28;19928;-80
2022/03/12 06:14:25;;;;;;;;;;;7.80;99.90;;;;;;5053030;28;20399;-78
2022/03/12 06:16:55;;;;;;;;;;;7.90;99.90;;;;;;5053313;28;20312;-77
2022/03/12 06:19:29;;;;;;;;;;;8.00;99.90;;;;;;5058633;28;19928;-78
2022/03/12 06:21:56;;;;;;;;;;;8.00;99.90;;;;;;5073712;28;20311;-76
2022/03/12 06:24:23;;;;;;;;;;;8.00;99.90;;;;;;5072884;28;19959;-77
2022/03/12 06:26:51;;;;;;;;;;;8.10;99.90;;;;;;5072959;28;19925;-76
2022/03/12 06:29:18;;;;;;;;;;;8.10;99.90;;;;;;5072343;28;19924;-77
2022/03/12 06:31:45;;;;;;;;;;;8.10;99.90;;;;;;5072908;28;19924;-76
2022/03/12 06:34:12;;;;;;;;;;;8.20;99.90;;;;;;5072672;28;19924;-76
2022/03/12 06:36:39;;;;;;;;;;;8.20;99.90;;;;;;5066615;28;20028;-76
2022/03/12 06:39:06;;;;;;;;;;;8.30;99.90;;;;;;5052164;28;19932;-77
2022/03/12 06:41:38;;;;;;;;;;;8.30;99.90;;;;;;5052856;28;19994;-75
2022/03/12 06:44:08;;;;;;;;;;;8.30;99.90;;;;;;5052470;28;20035;-76
2022/03/12 06:46:36;;;;;;;;;;;8.40;99.90;;;;;;5052208;28;19925;-77
2022/03/12 06:49:03;;;;;;;;;;;8.40;99.90;;;;;;5052072;28;20011;-77
2022/03/12 06:51:29;;;;;;;;;;;8.50;99.90;;;;;;5052783;28;19925;-77
2022/03/12 06:53:56;;;;;;;;;;;8.50;99.90;;;;;;5052616;28;19924;-77
2022/03/12 06:56:25;;;;;;;;;;;8.60;99.90;;;;;;5052677;28;19971;-77
2022/03/12 06:58:52;;;;;;;;;;;8.60;99.90;;;;;;5051661;28;19929;-76
2022/03/12 07:01:20;;;;;;;;;;;8.70;99.90;;;;;;5051927;28;19925;-77
2022/03/12 07:03:50;;;;;;;;;;;8.70;99.90;;;;;;5052392;28;20432;-77
2022/03/12 07:06:18;;;;;;;;;;;8.70;99.90;;;;;;5052243;28;20015;-77
2022/03/12 07:08:45;;;;;;;;;;;8.80;99.90;;;;;;5051810;28;20315;-76
2022/03/12 07:11:13;;;;;;;;;;;8.80;99.90;;;;;;5061739;28;19924;-77
2022/03/12 07:13:40;;;;;;;;;;;8.80;99.90;;;;;;5072569;28;19963;-77
2022/03/12 07:16:07;;;;;;;;;;;8.90;99.90;;;;;;5072266;28;19925;-77
2022/03/12 07:18:35;;;;;;;;;;;9.00;99.90;;;;;;5072157;28;19925;-77
2022/03/12 07:21:02;;;;;;;;;;;9.00;99.90;;;;;;5071378;28;19924;-78
2022/03/12 07:23:29;;;;;;;;;;;9.10;99.90;;;;;;5071975;28;19977;-78
2022/03/12 07:25:56;;;;;;;;;;;9.20;99.90;;;;;;5071823;28;19959;-78
2022/03/12 07:28:23;;;;;;;;;;;9.30;99.90;;;;;;5071529;28;19924;-77
2022/03/12 07:30:50;;;;;;;;;;;9.50;99.90;;;;;;5071332;28;20398;-78
2022/03/12 07:33:17;;;;;;;;;;;9.60;99.90;;;;;;5071733;28;19939;-79
2022/03/12 07:35:45;;;;;;;;;;;9.70;99.90;;;;;;5072239;28;19931;-78
2022/03/12 07:38:12;;;;;;;;;;;9.90;99.90;;;;;;5071568;28;19968;-78
2022/03/12 07:40:40;;;;;;;;;;;10.00;99.90;;;;;;5071297;28;19930;-79
2022/03/12 07:43:07;;;;;;;;;;;10.10;99.90;;;;;;5071605;28;19924;-78
2022/03/12 07:45:35;;;;;;;;;;;10.30;99.90;;;;;;5071460;28;19931;-77
2022/03/12 07:48:02;;;;;;;;;;;10.40;99.90;;;;;;5071088;28;19931;-79
2022/03/12 07:50:29;;;;;;;;;;;10.50;99.90;;;;;;5070584;28;20306;-78
2022/03/12 07:52:57;;;;;;;;;;;10.60;99.90;;;;;;5071277;28;20292;-78
2022/03/12 07:55:24;;;;;;;;;;;10.70;99.90;;;;;;5071223;28;20001;-78
2022/03/12 07:57:51;;;;;;;;;;;10.70;99.90;;;;;;5071374;28;19924;-77
2022/03/12 08:00:19;;;;;;;;;;;10.80;99.90;;;;;;5070891;28;19925;-78
2022/03/12 08:02:48;;;;;;;;;;;10.90;99.90;;;;;;5070785;28;20463;-78
2022/03/12 08:05:16;;;;;;;;;;;10.90;99.90;;;;;;5071016;28;19982;-77
2022/03/12 08:07:43;;;;;;;;;;;11.00;99.90;;;;;;5071000;28;19974;-77
2022/03/12 08:10:11;;;;;;;;;;;11.00;99.90;;;;;;5068927;28;19936;-77
2022/03/12 08:12:38;;;;;;;;;;;11.00;99.90;;;;;;5050844;28;19999;-78
2022/03/12 08:15:08;;;;;;;;;;;11.10;99.90;;;;;;5051208;28;19929;-78
2022/03/12 08:17:36;;;;;;;;;;;11.20;99.90;;;;;;5050887;28;20312;-77
2022/03/12 08:20:07;;;;;;;;;;;11.40;99.90;;;;;;5050683;28;19925;-77
2022/03/12 08:22:34;;;;;;;;;;;11.40;99.90;;;;;;5050498;28;19925;-77
2022/03/12 08:25:01;;;;;;;;;;;11.30;99.90;;;;;;5050825;28;19929;-77
2022/03/12 08:27:32;;;;;;;;;;;11.40;99.90;;;;;;5049849;28;20404;-78
2022/03/12 08:29:59;;;;;;;;;;;11.50;99.90;;;;;;5050458;28;19924;-77
2022/03/12 08:32:26;;;;;;;;;;;11.50;99.90;;;;;;5050483;28;20009;-77
2022/03/12 08:34:55;;;;;;;;;;;11.60;99.90;;;;;;5051096;28;19925;-77
2022/03/12 08:37:23;;;;;;;;;;;11.70;99.90;;;;;;5050716;28;19932;-79
2022/03/12 08:39:50;;;;;;;;;;;11.70;99.90;;;;;;5049781;28;19948;-77
2022/03/12 08:42:16;;;;;;;;;;;11.80;99.90;;;;;;5050470;28;19933;-77
2022/03/12 08:44:44;;;;;;;;;;;11.80;99.90;;;;;;5050609;28;19986;-77
2022/03/12 08:47:11;;;;;;;;;;;11.80;99.90;;;;;;5050884;28;19929;-78
2022/03/12 08:49:38;;;;;;;;;;;11.90;99.90;;;;;;5050091;28;19932;-78
2022/03/12 08:52:07;;;;;;;;;;;11.90;99.90;;;;;;5050942;28;19929;-78
2022/03/12 08:54:34;;;;;;;;;;;11.90;99.90;;;;;;5050444;28;19940;-79
2022/03/12 08:57:01;;;;;;;;;;;11.90;99.90;;;;;;5050626;28;20404;-77
2022/03/12 08:59:28;;;;;;;;;;;12.00;99.90;;;;;;5050546;28;19925;-81
2022/03/12 09:01:57;;;;;;;;;;;11.90;99.90;;;;;;5050781;28;19956;-77
2022/03/12 09:04:24;;;;;;;;;;;12.00;99.90;;;;;;5050113;28;19932;-78
2022/03/12 09:06:51;;;;;;;;;;;12.10;99.90;;;;;;5050298;28;19925;-78
2022/03/12 09:09:18;;;;;;;;;;;12.10;99.90;;;;;;5052824;28;19924;-78
2022/03/12 09:11:45;;;;;;;;;;;12.20;99.90;;;;;;5056231;28;19940;-80
2022/03/12 09:14:12;;;;;;;;;;;12.20;99.90;;;;;;5070222;28;19928;-78
2022/03/12 09:16:40;;;;;;;;;;;12.20;99.90;;;;;;5070805;28;19944;-78
2022/03/12 09:19:09;;;;;;;;;;;12.40;99.90;;;;;;5069543;28;19928;-79
2022/03/12 09:21:38;;;;;;;;;;;12.50;99.90;;;;;;5070026;28;19925;-80
2022/03/12 09:24:06;;;;;;;;;;;12.50;99.90;;;;;;5070222;28;19925;-78
2022/03/12 09:26:33;;;;;;;;;;;12.70;99.90;;;;;;5070314;28;20439;-78
2022/03/12 09:29:00;;;;;;;;;;;12.70;99.90;;;;;;5069805;28;19977;-79
2022/03/12 09:31:26;;;;;;;;;;;12.60;99.90;;;;;;5071627;28;19925;-78
2022/03/12 09:33:54;;;;;;;;;;;12.60;99.90;;;;;;5072602;28;19931;-78
2022/03/12 09:36:22;;;;;;;;;;;12.70;99.90;;;;;;5077017;28;20020;-79
2022/03/12 09:38:50;;;;;;;;;;;12.80;99.90;;;;;;5076797;28;19946;-77
2022/03/12 09:41:18;;;;;;;;;;;12.80;99.90;;;;;;5074045;28;19928;-81
2022/03/12 09:43:45;;;;;;;;;;;12.80;99.90;;;;;;5074147;28;19928;-79
2022/03/12 09:46:12;;;;;;;;;;;12.70;99.90;;;;;;5073919;28;19925;-77
2022/03/12 09:48:39;;;;;;;;;;;12.70;99.90;;;;;;5073755;28;19924;-78
2022/03/12 09:51:09;;;;;;;;;;;12.90;99.90;;;;;;5073863;28;19925;-78
2022/03/12 09:53:37;;;;;;;;;;;13.00;99.90;;;;;;5073905;28;19925;-79
2022/03/12 09:56:04;;;;;;;;;;;13.20;99.90;;;;;;5074086;28;19932;-79
2022/03/12 09:58:32;;;;;;;;;;;13.30;99.90;;;;;;5074192;28;19974;-79
2022/03/12 10:00:59;;;;;;;;;;;13.30;99.90;;;;;;5073738;28;19924;-80
2022/03/12 10:03:26;;;;;;;;;;;13.60;99.90;;;;;;5074247;28;20276;-79
2022/03/12 10:05:53;;;;;;;;;;;13.80;99.90;;;;;;5074249;28;20307;-78
2022/03/12 10:08:20;;;;;;;;;;;13.70;99.90;;;;;;5073879;28;19924;-80
2022/03/12 10:10:49;;;;;;;;;;;13.80;99.90;;;;;;5066897;28;19925;-79
2022/03/12 10:13:16;;;;;;;;;;;14.00;99.90;;;;;;5053709;28;19986;-81
2022/03/12 10:15:43;;;;;;;;;;;14.10;99.90;;;;;;5053915;28;20366;-79
2022/03/12 10:18:10;;;;;;;;;;;13.90;99.90;;;;;;5054063;28;19931;-79
2022/03/12 10:20:39;;;;;;;;;;;14.00;99.90;;;;;;5053407;28;19929;-79
2022/03/12 10:23:07;;;;;;;;;;;14.10;99.90;;;;;;5053901;28;19925;-79
2022/03/12 10:25:38;;;;;;;;;;;14.20;99.90;;;;;;5053405;28;19925;-79
2022/03/12 10:28:06;;;;;;;;;;;14.10;99.90;;;;;;5053676;28;19925;-80
2022/03/12 10:30:34;;;;;;;;;;;14.20;99.90;;;;;;5053139;28;19931;-78
2022/03/12 10:33:01;;;;;;;;;;;14.20;99.90;;;;;;5053386;28;19924;-80
2022/03/12 10:35:32;;;;;;;;;;;14.40;99.90;;;;;;5053583;28;19935;-79
2022/03/12 10:38:01;;;;;;;;;;;14.40;99.90;;;;;;5053178;28;19929;-79
2022/03/12 10:40:30;;;;;;;;;;;14.10;99.90;;;;;;5052487;28;20421;-80
2022/03/12 10:42:58;;;;;;;;;;;14.00;99.90;;;;;;5053552;28;20016;-81
2022/03/12 10:45:27;;;;;;;;;;;13.90;99.90;;;;;;5053182;28;19932;-78
2022/03/12 10:47:55;;;;;;;;;;;13.70;99.90;;;;;;5052984;28;19951;-79
2022/03/12 10:50:25;;;;;;;;;;;13.80;99.90;;;;;;5051477;28;19952;-77
2022/03/12 10:52:53;;;;;;;;;;;13.80;99.90;;;;;;5052476;28;20408;-79
2022/03/12 10:55:24;;;;;;;;;;;14.00;99.90;;;;;;5053032;28;19928;-79
2022/03/12 10:58:02;;;;;;;;;;;14.10;99.90;;;;;;5053054;28;19933;-78
2022/03/12 11:00:31;;;;;;;;;;;14.30;99.90;;;;;;5052183;28;19928;-79
2022/03/12 11:02:59;;;;;;;;;;;14.40;99.90;;;;;;5052934;28;20285;-79
2022/03/12 11:05:26;;;;;;;;;;;14.40;99.90;;;;;;5052949;28;20335;-79
2022/03/12 11:07:53;;;;;;;;;;;14.50;99.90;;;;;;5052828;28;19929;-81
2022/03/12 11:10:23;;;;;;;;;;;14.80;99.90;;;;;;5053118;28;20404;-78
2022/03/12 11:12:52;;;;;;;;;;;15.00;99.90;;;;;;5052847;28;19925;-79
2022/03/12 11:15:19;;;;;;;;;;;15.30;99.90;;;;;;5053615;28;19928;-79
2022/03/12 11:17:49;;;;;;;;;;;15.60;99.90;;;;;;5053668;28;19992;-79
2022/03/12 11:20:19;;;;;;;;;;;15.90;99.90;;;;;;5052841;28;19932;-79
2022/03/12 11:22:50;;;;;;;;;;;15.90;99.90;;;;;;5053522;28;19936;-79
2022/03/12 11:25:20;;;;;;;;;;;16.30;99.90;;;;;;5053313;28;19931;-80
2022/03/12 11:27:50;;;;;;;;;;;16.40;99.90;;;;;;5053402;28;20402;-79
2022/03/12 11:30:20;;;;;;;;;;;16.80;99.90;;;;;;5053674;28;19925;-79
2022/03/12 11:32:52;;;;;;;;;;;16.60;99.90;;;;;;5054152;28;19932;-79
2022/03/12 11:35:21;;;;;;;;;;;16.90;99.90;;;;;;5054095;28;20374;-80
2022/03/12 11:37:48;;;;;;;;;;;;;;;;;;5054337;28;19940;-80
2022/03/12 11:40:18;;;;;;;;;;;16.50;99.90;;;;;;5052881;28;19924;-80
2022/03/12 11:42:47;;;;;;;;;;;16.40;99.90;;;;;;5053306;28;19925;-79
2022/03/12 11:45:15;;;;;;;;;;;16.40;99.90;;;;;;5053089;28;20427;-79
2022/03/12 11:47:43;;;;;;;;;;;16.50;99.90;;;;;;5054273;28;20407;-78
2022/03/12 11:50:15;;;;;;;;;;;17.20;99.90;;;;;;5053012;28;19929;-79
2022/03/12 11:52:42;;;;;;;;;;;18.30;99.90;;;;;;5055306;28;19925;-80
2022/03/12 11:55:18;;;;;;;;;;;20.00;99.90;;;;;;5053145;28;19956;-77
2022/03/12 11:57:46;;;;;;;;;;;19.50;99.90;;;;;;5051272;28;19931;-78
2022/03/12 12:00:19;;;;;;;;;;;18.30;99.90;;;;;;5051054;28;19925;-77
2022/03/12 12:02:46;;;;;;;;;;;17.70;99.90;;;;;;5050289;28;19925;-78
2022/03/12 12:05:17;;;;;;;;;;;17.10;99.90;;;;;;5051493;28;19932;-79
2022/03/12 12:07:47;;;;;;;;;;;17.50;99.90;;;;;;5051111;28;19932;-78
2022/03/12 12:10:16;;;;;;;;;;;18.40;99.90;;;;;;5052344;28;19925;-78
2022/03/12 12:12:43;;;;;;;;;;;17.70;99.90;;;;;;5070824;28;19925;-79
2022/03/12 12:15:15;;;;;;;;;;;17.50;99.90;;;;;;5071099;28;20302;-77
2022/03/12 12:17:42;;;;;;;;;;;17.30;99.90;;;;;;5070731;28;20020;-80
2022/03/12 12:20:09;;;;;;;;;;;17.30;99.90;;;;;;5070279;28;20380;-78
2022/03/12 12:22:38;;;;;;;;;;;17.20;99.90;;;;;;5070671;28;20284;-79
2022/03/12 12:25:05;;;;;;;;;;;17.10;99.90;;;;;;5070927;28;19978;-78
2022/03/12 12:27:41;;;;;;;;;;;17.10;99.90;;;;;;5070780;28;19925;-78
2022/03/12 12:30:09;;;;;;;;;;;16.70;99.90;;;;;;5070094;28;19924;-79
2022/03/12 12:32:44;;;;;;;;;;;16.70;99.90;;;;;;5070858;28;19959;-79
2022/03/12 12:35:13;;;;;;;;;;;17.00;99.90;;;;;;5070347;28;19978;-77
2022/03/12 12:37:42;;;;;;;;;;;16.90;99.90;;;;;;5070780;28;19928;-78
2022/03/12 12:40:30;;;;;;;;;;;17.00;99.90;;;;;;5069833;28;19968;-79
2022/03/12 12:42:57;;;;;;;;;;;17.10;99.90;;;;;;5070723;28;20400;-79
2022/03/12 12:45:26;;;;;;;;;;;16.90;99.90;;;;;;5070563;28;19985;-79
2022/03/12 12:48:10;;;;;;;;;;;17.20;99.90;;;;;;5071847;28;19932;-78
2022/03/12 12:50:37;;;;;;;;;;;18.20;99.90;;;;;;5072158;28;19924;-78
2022/03/12 12:53:27;;;;;;;;;;;18.40;99.90;;;;;;5072255;28;19932;-79
2022/03/12 12:55:54;;;;;;;;;;;18.90;99.90;;;;;;5073393;28;19925;-79
2022/03/12 12:58:45;;;;;;;;;;;19.40;99.90;;;;;;5073770;28;20311;-80
2022/03/12 13:01:16;;;;;;;;;;;19.40;99.90;;;;;;5093817;22;20005;-74
2022/03/12 13:03:44;;;;;;;;;;;19.70;99.90;;;;;;5049686;28;20023;-75
2022/03/12 13:06:11;;;;;;;;;;;19.30;99.90;;;;;;5050240;28;20016;-76
2022/03/12 13:08:47;;;;;;;;;;;18.80;99.90;;;;;;5049826;28;19931;-78
2022/03/12 13:11:26;;;;;;;;;;;18.50;99.90;;;;;;5050475;28;19924;-77
2022/03/12 13:13:58;;;;;;;;;;;18.20;99.90;;;;;;5049487;28;19935;-77
2022/03/12 13:16:25;;;;;;;;;;;17.60;99.90;;;;;;5050061;28;19967;-77
2022/03/12 13:18:52;;;;;;;;;;;17.60;99.90;;;;;;5049872;28;20342;-76
2022/03/12 13:21:26;;;;;;;;;;;17.20;99.90;;;;;;5050194;28;19932;-77
2022/03/12 13:23:57;;;;;;;;;;;17.10;99.90;;;;;;5032883;28;21239;-76
2022/03/12 13:26:26;;;;;;;;;;;16.90;99.90;;;;;;5049875;28;19929;-77
2022/03/12 13:28:55;;;;;;;;;;;17.00;99.90;;;;;;5049487;28;19925;-77
2022/03/12 13:31:27;;;;;;;;;;;17.90;99.90;;;;;;5049916;28;19925;-76
2022/03/12 13:34:01;;;;;;;;;;;18.90;99.90;;;;;;5049854;28;19929;-76
2022/03/12 13:36:29;;;;;;;;;;;19.60;99.90;;;;;;5049736;28;19925;-77
2022/03/12 13:38:58;;;;;;;;;;;20.50;99.90;;;;;;5049228;28;19929;-76
2022/03/12 13:41:26;;;;;;;;;;;21.00;99.90;;;;;;5049508;28;20342;-78
2022/03/12 13:43:54;;;;;;;;;;;20.50;99.90;;;;;;5049649;28;19925;-76
2022/03/12 13:46:22;;;;;;;;;;;20.00;99.90;;;;;;5049636;28;19964;-76
2022/03/12 13:48:57;;;;;;;;;;;19.40;99.90;;;;;;5049051;28;19925;-74
2022/03/12 13:51:25;;;;;;;;;;;18.80;99.90;;;;;;5049470;28;19929;-76
2022/03/12 13:53:53;;;;;;;;;;;18.10;99.90;;;;;;5049618;28;19997;-76
2022/03/12 13:56:23;;;;;;;;;;;18.00;99.90;;;;;;5049359;28;19925;-78
2022/03/12 13:58:50;;;;;;;;;;;18.10;99.90;;;;;;5049273;28;19925;-76
2022/03/12 14:01:29;;;;;;;;;;;18.30;99.90;;;;;;5049130;28;20015;-76
2022/03/12 14:03:56;;;;;;;;;;;18.60;99.90;;;;;;5049310;28;19943;-77
2022/03/12 14:06:27;;;;;;;;;;;18.60;99.90;;;;;;5049589;28;19925;-76
2022/03/12 14:08:55;;;;;;;;;;;18.30;99.90;;;;;;5048963;28;20293;-75
2022/03/12 14:11:30;;;;;;;;;;;17.80;99.90;;;;;;5049627;28;20356;-76
2022/03/12 14:13:59;;;;;;;;;;;17.50;99.90;;;;;;5049564;28;19928;-76
2022/03/12 14:16:27;;;;;;;;;;;17.10;99.90;;;;;;5049183;28;20387;-76
2022/03/12 14:18:56;;;;;;;;;;;17.10;99.90;;;;;;5049230;28;19950;-76
2022/03/12 14:21:35;;;;;;;;;;;17.30;99.90;;;;;;5049834;28;19932;-75
2022/03/12 14:24:13;;;;;;;;;;;17.60;99.90;;;;;;5049461;28;20304;-76
2022/03/12 14:26:45;;;;;;;;;;;17.60;99.90;;;;;;5052420;28;19990;-76
2022/03/12 14:29:13;;;;;;;;;;;17.70;99.90;;;;;;5052549;28;20343;-76
2022/03/12 14:31:39;;;;;;;;;;;17.70;99.90;;;;;;5052674;28;19973;-76